Time;durP1;ratioP1;P1;durP2;ratioP2;P2;SDS_P1;SDS_P2;PMS_P1;PMS_P2;Temp;Humidity;BMP_temperature;BMP_pressure;BME280_temperature;BME280_humidity;BME280_pressure;Samples;Min_cycle;Max_cycle;Signal;HPM_P1;HPM_P2
2023/07/06 00:01:10;;;;;;;1.80;0.40;;;12.90;99.90;;;;;;5032345;28;20064;-76
2023/07/06 00:03:37;;;;;;;2.65;0.30;;;12.90;99.90;;;;;;5033446;28;20083;-75
2023/07/06 00:06:07;;;;;;;2.33;0.57;;;12.90;99.90;;;;;;5033501;28;20417;-75
2023/07/06 00:08:33;;;;;;;3.03;0.93;;;12.80;99.90;;;;;;5033565;28;20022;-75
2023/07/06 00:10:58;;;;;;;2.40;0.17;;;12.80;99.90;;;;;;5033365;28;20028;-76
2023/07/06 00:13:24;;;;;;;1.75;0.40;;;12.80;99.90;;;;;;5032936;28;20409;-75
2023/07/06 00:15:50;;;;;;;1.10;0.55;;;12.90;99.90;;;;;;5032168;28;20030;-75
2023/07/06 00:18:18;;;;;;;2.17;0.43;;;12.90;99.90;;;;;;5033312;28;20477;-76
2023/07/06 00:20:43;;;;;;;2.50;0.55;;;12.90;99.90;;;;;;5033260;28;20025;-75
2023/07/06 00:23:10;;;;;;;1.13;0.60;;;12.90;99.90;;;;;;5031925;28;20083;-75
2023/07/06 00:25:36;;;;;;;2.50;0.55;;;12.90;99.90;;;;;;5031963;28;20028;-75
2023/07/06 00:28:03;;;;;;;4.28;0.50;;;12.90;99.90;;;;;;5033204;28;20029;-75
2023/07/06 00:30:40;;;;;;;4.10;0.60;;;12.90;99.90;;;;;;5033197;28;20420;-75
2023/07/06 00:33:07;;;;;;;4.15;0.85;;;12.90;99.90;;;;;;5033125;28;20029;-75
2023/07/06 00:35:34;;;;;;;3.35;0.68;;;12.90;99.90;;;;;;5033101;28;20029;-75
2023/07/06 00:38:00;;;;;;;7.82;0.60;;;12.90;99.90;;;;;;5031898;28;20036;-75
2023/07/06 00:40:31;;;;;;;7.22;0.98;;;13.00;99.90;;;;;;5033646;28;20052;-75
2023/07/06 00:42:57;;;;;;;10.93;1.30;;;13.00;99.90;;;;;;5037702;28;20461;-75
2023/07/06 00:45:22;;;;;;;7.47;0.98;;;13.00;99.90;;;;;;5035979;28;20029;-75
2023/07/06 00:47:56;;;;;;;3.72;1.20;;;13.00;99.90;;;;;;5036998;28;20032;-75
2023/07/06 00:50:24;;;;;;;11.65;1.30;;;13.10;99.90;;;;;;5035910;28;20547;-75
2023/07/06 00:52:54;;;;;;;7.65;0.70;;;13.10;99.90;;;;;;5035952;28;20013;-75
2023/07/06 00:55:25;;;;;;;5.97;1.33;;;13.10;99.90;;;;;;5035624;28;20166;-75
2023/07/06 00:57:53;;;;;;;9.90;0.77;;;13.10;99.90;;;;;;5036864;28;20021;-75
2023/07/06 01:00:20;;;;;;;4.00;0.80;;;13.20;99.90;;;;;;5037306;28;20373;-75
2023/07/06 01:02:51;;;;;;;10.88;1.65;;;13.20;99.90;;;;;;5035135;28;20484;-76
2023/07/06 01:05:18;;;;;;;5.78;0.63;;;13.20;99.90;;;;;;5036659;28;20018;-75
2023/07/06 01:07:45;;;;;;;3.42;0.60;;;13.20;99.90;;;;;;5035365;28;20021;-75
2023/07/06 01:10:12;;;;;;;6.80;0.70;;;13.20;99.90;;;;;;5036648;28;20013;-75
2023/07/06 01:12:37;;;;;;;6.72;1.38;;;13.20;99.90;;;;;;5035182;28;20033;-75
2023/07/06 01:15:04;;;;;;;5.10;0.95;;;13.30;99.90;;;;;;5035217;28;20025;-75
2023/07/06 01:17:53;;;;;;;8.15;0.55;;;13.30;99.90;;;;;;5037055;28;20053;-75
2023/07/06 01:20:31;;;;;;;4.20;0.30;;;13.30;99.90;;;;;;5037021;28;20033;-75
2023/07/06 01:23:25;;;;;;;3.78;1.00;;;13.40;99.90;;;;;;5036772;28;20025;-75
2023/07/06 01:26:19;;;;;;;4.68;0.85;;;13.50;99.90;;;;;;5036892;28;20036;-75
2023/07/06 01:29:13;;;;;;;7.53;0.90;;;13.50;99.90;;;;;;5036875;28;20045;-75
2023/07/06 01:31:51;;;;;;;7.50;1.60;;;13.60;99.90;;;;;;5034919;28;20017;-75
2023/07/06 01:34:33;;;;;;;9.63;0.80;;;13.60;99.90;;;;;;5036058;28;20034;-75
2023/07/06 01:37:06;;;;;;;5.07;0.95;;;13.70;99.90;;;;;;5036632;28;20358;-76
2023/07/06 01:39:32;;;;;;;4.00;0.57;;;13.70;99.90;;;;;;5036047;28;20032;-76
2023/07/06 01:42:10;;;;;;;9.82;0.45;;;13.80;99.90;;;;;;5034841;28;20026;-75
2023/07/06 01:44:37;;;;;;;4.43;0.67;;;13.80;99.90;;;;;;5034620;28;20514;-75
2023/07/06 01:47:03;;;;;;;5.88;1.08;;;13.80;99.90;;;;;;5036474;28;20283;-76
2023/07/06 01:49:30;;;;;;;5.72;0.25;;;13.80;99.90;;;;;;5036406;28;20025;-76
2023/07/06 01:52:07;;;;;;;8.75;1.08;;;13.90;99.90;;;;;;5034554;28;20056;-76
2023/07/06 01:54:44;;;;;;;5.68;0.73;;;13.90;99.90;;;;;;5035849;28;20559;-76
2023/07/06 01:57:25;;;;;;;2.75;0.20;;;13.90;99.90;;;;;;5035946;28;20029;-76
2023/07/06 01:59:55;;;;;;;4.82;0.68;;;13.90;99.90;;;;;;5035797;28;20493;-76
2023/07/06 02:02:21;;;;;;;4.75;0.65;;;13.90;99.90;;;;;;5035808;28;20025;-76
2023/07/06 02:04:47;;;;;;;5.38;0.40;;;14.10;99.90;;;;;;5035364;28;20028;-76
2023/07/06 02:07:16;;;;;;;3.80;0.95;;;13.90;99.90;;;;;;5035701;28;20427;-76
2023/07/06 02:09:46;;;;;;;5.45;0.65;;;13.90;99.90;;;;;;5035733;28;20022;-75
2023/07/06 02:12:12;;;;;;;4.82;0.70;;;13.90;99.90;;;;;;5034207;28;20405;-76
2023/07/06 02:14:42;;;;;;;3.10;0.20;;;13.90;99.90;;;;;;5036144;28;20065;-75
2023/07/06 02:17:09;;;;;;;5.15;0.50;;;13.90;99.90;;;;;;5035402;28;20033;-76
2023/07/06 02:19:35;;;;;;;4.90;0.50;;;13.90;99.90;;;;;;5035405;28;20033;-76
2023/07/06 02:22:04;;;;;;;6.53;0.50;;;13.90;99.90;;;;;;5035939;28;20112;-76
2023/07/06 02:24:33;;;;;;;4.28;0.22;;;13.90;99.90;;;;;;5035117;28;20017;-76
2023/07/06 02:26:59;;;;;;;2.33;0.35;;;13.80;99.90;;;;;;5035184;28;20160;-76
2023/07/06 02:29:24;;;;;;;6.80;0.35;;;13.80;99.90;;;;;;5035707;28;20643;-75
2023/07/06 02:31:50;;;;;;;9.25;0.47;;;13.70;99.90;;;;;;5035162;28;20470;-75
2023/07/06 02:34:24;;;;;;;3.28;0.50;;;14.20;99.90;;;;;;5034990;28;20018;-75
2023/07/06 02:36:54;;;;;;;2.47;0.40;;;13.80;99.90;;;;;;5035065;28;20485;-75
2023/07/06 02:39:24;;;;;;;4.35;1.15;;;13.80;99.90;;;;;;5034996;28;20072;-75
2023/07/06 02:41:56;;;;;;;3.72;0.32;;;13.80;99.90;;;;;;5035019;28;20032;-75
2023/07/06 02:44:22;;;;;;;4.50;0.85;;;13.80;99.90;;;;;;5033632;28;20026;-75
2023/07/06 02:46:48;;;;;;;6.47;0.40;;;13.80;99.90;;;;;;5034907;28;20031;-76
2023/07/06 02:49:15;;;;;;;11.68;0.98;;;13.80;99.90;;;;;;5034729;28;20030;-76
2023/07/06 02:51:41;;;;;;;2.70;0.47;;;13.80;99.90;;;;;;5034765;28;20493;-76
2023/07/06 02:54:07;;;;;;;7.32;0.70;;;13.80;99.90;;;;;;5033371;28;20017;-76
2023/07/06 02:56:33;;;;;;;4.88;0.73;;;13.80;99.90;;;;;;5034587;28;20018;-76
2023/07/06 02:58:59;;;;;;;4.90;1.00;;;13.80;99.90;;;;;;5033359;28;20080;-75
2023/07/06 03:01:24;;;;;;;9.77;1.30;;;13.80;99.90;;;;;;5033473;28;20025;-75
2023/07/06 03:03:51;;;;;;;3.90;0.40;;;13.80;99.90;;;;;;5033993;28;20022;-75
2023/07/06 03:06:17;;;;;;;4.50;0.45;;;13.80;99.90;;;;;;5034568;28;20384;-76
2023/07/06 03:08:43;;;;;;;6.47;1.65;;;13.80;99.90;;;;;;5034420;28;20013;-76
2023/07/06 03:11:10;;;;;;;7.30;0.40;;;13.80;99.90;;;;;;5034435;28;20030;-76
2023/07/06 03:13:36;;;;;;;1.52;0.38;;;13.80;99.90;;;;;;5032797;28;20069;-76
2023/07/06 03:16:03;;;;;;;9.75;1.45;;;13.80;99.90;;;;;;5034772;28;20036;-76
2023/07/06 03:18:28;;;;;;;5.22;0.70;;;13.80;99.90;;;;;;5034758;28;20022;-76
2023/07/06 03:20:55;;;;;;;2.30;0.50;;;13.80;99.90;;;;;;5034305;28;20108;-76
2023/07/06 03:23:21;;;;;;;7.68;1.75;;;13.80;99.90;;;;;;5034116;28;20024;-75
2023/07/06 03:25:51;;;;;;;2.33;0.35;;;13.80;99.90;;;;;;5034650;28;20025;-75
2023/07/06 03:28:17;;;;;;;7.07;0.50;;;13.80;99.90;;;;;;5034112;28;20021;-75
2023/07/06 03:30:43;;;;;;;5.07;0.47;;;13.80;99.90;;;;;;5034468;28;20036;-75
2023/07/06 03:33:09;;;;;;;9.30;0.98;;;14.00;99.90;;;;;;5034070;28;20025;-75
2023/07/06 03:35:39;;;;;;;7.18;0.98;;;13.80;99.90;;;;;;5034010;28;20029;-76
2023/07/06 03:38:04;;;;;;;3.35;0.30;;;13.80;99.90;;;;;;5033792;28;20072;-76
2023/07/06 03:40:31;;;;;;;6.30;0.68;;;13.80;99.90;;;;;;5034637;28;20033;-75
2023/07/06 03:42:58;;;;;;;7.63;1.23;;;13.80;99.90;;;;;;5034291;28;20032;-76
2023/07/06 03:45:24;;;;;;;3.08;0.40;;;13.80;99.90;;;;;;5032577;28;20036;-75
2023/07/06 03:47:50;;;;;;;5.72;1.50;;;13.80;99.90;;;;;;5033681;28;20031;-75
2023/07/06 03:50:18;;;;;;;1.92;0.32;;;13.80;99.90;;;;;;5033620;28;20028;-76
2023/07/06 03:52:44;;;;;;;4.53;1.02;;;13.90;99.90;;;;;;5034020;28;20017;-75
2023/07/06 03:55:22;;;;;;;7.55;1.10;;;13.90;99.90;;;;;;5034172;28;20032;-75
2023/07/06 03:57:49;;;;;;;8.13;0.85;;;13.90;99.90;;;;;;5033580;28;20079;-75
2023/07/06 04:00:22;;;;;;;5.95;0.80;;;13.90;99.90;;;;;;5032304;28;20056;-76
2023/07/06 04:02:52;;;;;;;9.43;0.95;;;13.90;99.90;;;;;;5033898;28;20088;-75
2023/07/06 04:05:22;;;;;;;4.88;1.27;;;13.90;99.90;;;;;;5033585;28;20048;-75
2023/07/06 04:07:52;;;;;;;6.38;0.90;;;13.90;99.90;;;;;;5033420;28;20026;-75
2023/07/06 04:10:19;;;;;;;8.98;0.65;;;14.00;99.90;;;;;;5033570;28;20024;-75
2023/07/06 04:12:44;;;;;;;3.92;0.95;;;14.00;99.90;;;;;;5031912;28;20021;-75
2023/07/06 04:15:10;;;;;;;5.25;0.60;;;13.90;99.90;;;;;;5032753;28;20381;-75
2023/07/06 04:17:36;;;;;;;6.45;1.48;;;14.00;99.90;;;;;;5032002;28;20032;-75
2023/07/06 04:20:18;;;;;;;7.55;0.65;;;13.90;99.90;;;;;;5033243;28;20385;-75
2023/07/06 04:22:44;;;;;;;6.10;1.33;;;14.00;99.90;;;;;;5033360;28;20109;-75
2023/07/06 04:25:10;;;;;;;4.35;0.85;;;14.00;99.90;;;;;;5032105;28;20033;-75
2023/07/06 04:27:36;;;;;;;4.53;2.20;;;14.00;99.90;;;;;;5033251;28;20053;-75
2023/07/06 04:30:02;;;;;;;7.97;1.65;;;14.10;99.90;;;;;;5032029;28;20057;-75
2023/07/06 04:32:27;;;;;;;9.75;1.98;;;14.10;99.90;;;;;;5033012;28;20072;-76
2023/07/06 04:34:54;;;;;;;10.00;1.98;;;14.20;99.90;;;;;;5031870;28;20029;-76
2023/07/06 04:37:22;;;;;;;16.95;1.30;;;14.10;99.90;;;;;;5032024;28;20412;-76
2023/07/06 04:39:47;;;;;;;2.72;0.73;;;14.10;99.90;;;;;;5031861;28;20021;-76
2023/07/06 04:42:13;;;;;;;7.13;0.95;;;14.20;99.90;;;;;;5033084;28;20105;-75
2023/07/06 04:44:38;;;;;;;7.85;0.73;;;14.20;99.90;;;;;;5031819;28;20022;-76
2023/07/06 04:47:04;;;;;;;6.30;1.25;;;14.20;99.90;;;;;;5033673;28;20030;-75
2023/07/06 04:49:30;;;;;;;8.15;1.73;;;14.20;99.90;;;;;;5033611;28;20017;-75
2023/07/06 04:51:55;;;;;;;8.60;1.02;;;14.30;99.90;;;;;;5033214;28;20029;-76
2023/07/06 04:54:23;;;;;;;6.53;1.70;;;14.30;99.90;;;;;;5032955;28;20029;-76
2023/07/06 04:56:49;;;;;;;;;;;14.30;99.90;;;;;;5033435;28;20499;-75
2023/07/06 04:59:16;;;;;;;16.38;2.03;;;14.30;99.90;;;;;;5031790;28;19908;-75
2023/07/06 05:01:42;;;;;;;13.13;1.10;;;15.10;99.90;;;;;;5032877;28;20049;-75
2023/07/06 05:04:09;;;;;;;11.85;2.38;;;14.90;99.90;;;;;;5031465;28;20056;-75
2023/07/06 05:06:35;;;;;;;10.60;1.60;;;14.50;99.90;;;;;;5031488;28;20099;-75
2023/07/06 05:09:04;;;;;;;10.45;2.53;;;14.50;99.90;;;;;;5031810;28;20045;-75
2023/07/06 05:11:30;;;;;;;10.45;1.80;;;14.60;99.90;;;;;;5031804;28;20067;-76
2023/07/06 05:13:56;;;;;;;7.97;1.25;;;14.70;99.90;;;;;;5031455;28;20037;-76
2023/07/06 05:16:23;;;;;;;11.70;1.98;;;14.70;99.90;;;;;;5032810;28;20543;-76
2023/07/06 05:18:49;;;;;;;11.52;1.50;;;14.70;99.90;;;;;;5032726;28;20029;-75
2023/07/06 05:21:14;;;;;;;8.10;1.80;;;14.80;99.90;;;;;;5032616;28;20029;-76
2023/07/06 05:23:40;;;;;;;11.55;2.05;;;14.90;99.90;;;;;;5032546;28;20022;-76
2023/07/06 05:26:07;;;;;;;14.02;2.20;;;14.90;99.90;;;;;;5033789;28;20025;-75
2023/07/06 05:28:33;;;;;;;9.68;2.05;;;15.00;99.90;;;;;;5036271;28;20018;-75
2023/07/06 05:31:02;;;;;;;12.68;2.00;;;15.10;99.90;;;;;;5036435;28;20035;-75
2023/07/06 05:33:27;;;;;;;10.35;2.30;;;15.20;99.90;;;;;;5034764;28;20022;-75
2023/07/06 05:35:53;;;;;;;12.80;1.85;;;15.40;99.90;;;;;;5036249;28;20034;-75
2023/07/06 05:38:18;;;;;;;12.63;3.00;;;15.40;99.90;;;;;;5035995;28;20148;-75
2023/07/06 05:40:47;;;;;;;10.65;1.90;;;15.50;99.90;;;;;;5034763;28;20029;-75
2023/07/06 05:43:13;;;;;;;9.05;2.00;;;15.60;99.90;;;;;;5035791;28;20033;-74
2023/07/06 05:45:39;;;;;;;14.65;1.67;;;15.60;99.90;;;;;;5035831;28;20028;-74
2023/07/06 05:48:05;;;;;;;12.88;2.00;;;16.60;99.90;;;;;;5034630;28;20105;-74
2023/07/06 05:50:30;;;;;;;11.30;1.58;;;15.60;99.90;;;;;;5034931;28;20013;-74
2023/07/06 05:52:56;;;;;;;9.18;2.25;;;15.60;99.90;;;;;;5034449;28;20025;-75
2023/07/06 05:55:21;;;;;;;12.15;2.35;;;15.70;99.90;;;;;;5034448;28;20018;-75
2023/07/06 05:57:47;;;;;;;11.52;2.15;;;15.80;99.90;;;;;;5035738;28;20500;-75
2023/07/06 06:00:15;;;;;;;13.30;3.63;;;15.90;99.90;;;;;;5034345;28;20500;-75
2023/07/06 06:02:44;;;;;;;11.77;2.38;;;15.80;99.90;;;;;;5034302;28;20021;-75
2023/07/06 06:05:11;;;;;;;7.22;2.42;;;15.80;99.90;;;;;;5036205;28;20026;-75
2023/07/06 06:07:36;;;;;;;14.10;2.70;;;15.90;99.90;;;;;;5035444;28;20022;-75
2023/07/06 06:10:03;;;;;;;12.32;2.80;;;15.90;99.90;;;;;;5034388;28;20385;-75
2023/07/06 06:12:31;;;;;;;9.35;2.75;;;15.90;99.90;;;;;;5034665;28;20033;-75
2023/07/06 06:14:57;;;;;;;11.68;3.05;;;15.90;99.90;;;;;;5033113;28;20048;-75
2023/07/06 06:17:26;;;;;;;16.75;4.03;;;15.90;99.90;;;;;;5034204;28;20025;-76
2023/07/06 06:19:52;;;;;;;12.00;2.83;;;15.90;99.90;;;;;;5033253;28;20018;-75
2023/07/06 06:22:18;;;;;;;14.63;4.13;;;16.00;99.90;;;;;;5034796;28;20039;-75
2023/07/06 06:24:44;;;;;;;11.48;4.07;;;16.20;99.90;;;;;;5034365;28;20033;-75
2023/07/06 06:27:12;;;;;;;11.02;3.25;;;16.40;99.90;;;;;;5035767;28;20021;-75
2023/07/06 06:29:39;;;;;;;14.05;4.20;;;16.50;99.90;;;;;;5035142;28;20045;-75
2023/07/06 06:32:05;;;;;;;19.13;4.47;;;16.60;99.90;;;;;;5035280;28;20014;-75
2023/07/06 06:34:31;;;;;;;12.57;3.80;;;16.60;99.90;;;;;;5035054;28;20025;-75
2023/07/06 06:36:57;;;;;;;14.18;5.03;;;16.70;99.90;;;;;;5034780;28;20068;-75
2023/07/06 06:39:24;;;;;;;14.75;4.57;;;16.80;99.90;;;;;;5034414;28;20021;-75
2023/07/06 06:41:49;;;;;;;16.60;5.55;;;16.70;99.90;;;;;;5034927;28;20025;-75
2023/07/06 06:44:15;;;;;;;14.30;5.82;;;16.90;99.90;;;;;;5034699;28;20489;-75
2023/07/06 06:46:40;;;;;;;20.77;7.10;;;16.70;99.90;;;;;;5034760;28;20025;-74
2023/07/06 06:49:06;;;;;;;17.65;7.00;;;17.00;99.90;;;;;;5033468;28;20053;-75
2023/07/06 06:51:32;;;;;;;15.60;5.82;;;16.90;99.90;;;;;;5034744;28;20025;-75
2023/07/06 06:53:58;;;;;;;25.63;6.45;;;17.00;99.90;;;;;;5034754;28;20107;-75
2023/07/06 06:56:24;;;;;;;23.73;6.93;;;17.10;99.90;;;;;;5033415;28;20374;-74
2023/07/06 06:58:51;;;;;;;17.48;6.20;;;17.20;99.90;;;;;;5034612;28;20029;-74
2023/07/06 07:01:17;;;;;;;16.17;5.35;;;17.40;99.90;;;;;;5034550;28;20067;-74
2023/07/06 07:03:42;;;;;;;17.88;5.60;;;17.60;99.90;;;;;;5034321;28;20033;-74
2023/07/06 07:06:11;;;;;;;17.20;5.15;;;17.60;99.90;;;;;;5034999;28;20013;-74
2023/07/06 07:08:50;;;;;;;27.60;5.93;;;17.70;99.90;;;;;;5033141;28;20045;-76
2023/07/06 07:11:20;;;;;;;13.27;5.82;;;17.60;99.90;;;;;;5033047;28;20036;-76
2023/07/06 07:13:47;;;;;;;13.02;5.10;;;17.70;99.90;;;;;;5032834;28;20493;-76
2023/07/06 07:16:14;;;;;;;18.05;6.05;;;17.80;99.90;;;;;;5034633;28;20112;-76
2023/07/06 07:18:40;;;;;;;14.77;5.07;;;17.70;99.90;;;;;;5032999;28;20025;-76
2023/07/06 07:21:09;;;;;;;10.82;4.43;;;17.70;99.90;;;;;;5034143;28;20029;-77
2023/07/06 07:23:47;;;;;;;10.63;5.25;;;17.90;99.90;;;;;;5033994;28;20057;-76
2023/07/06 07:26:18;;;;;;;11.65;4.32;;;18.00;99.90;;;;;;5034020;28;20028;-77
2023/07/06 07:28:51;;;;;;;9.68;4.82;;;18.20;99.90;;;;;;5034044;28;20025;-77
2023/07/06 07:31:18;;;;;;;11.15;4.43;;;18.30;99.90;;;;;;5034028;28;20044;-76
2023/07/06 07:33:46;;;;;;;6.07;2.67;;;18.30;99.90;;;;;;5033970;28;20084;-76
2023/07/06 07:36:13;;;;;;;6.93;2.83;;;18.30;99.90;;;;;;5032674;28;20013;-76
2023/07/06 07:38:39;;;;;;;9.48;3.45;;;18.40;99.90;;;;;;5033840;28;20075;-76
2023/07/06 07:41:06;;;;;;;9.57;2.42;;;18.50;99.90;;;;;;5034443;28;20416;-77
2023/07/06 07:43:35;;;;;;;11.32;2.72;;;18.60;99.90;;;;;;5033574;28;20032;-77
2023/07/06 07:46:09;;;;;;;6.72;2.80;;;18.80;99.90;;;;;;5033690;28;20080;-77
2023/07/06 07:48:39;;;;;;;8.00;2.58;;;18.90;99.90;;;;;;5034151;28;20041;-76
2023/07/06 07:51:09;;;;;;;8.50;3.30;;;18.90;99.90;;;;;;5031666;28;20435;-76
2023/07/06 07:53:38;;;;;;;5.13;1.95;;;18.90;99.90;;;;;;5032761;28;20326;-76
2023/07/06 07:56:05;;;;;;;7.47;2.28;;;19.20;99.90;;;;;;5033552;28;20477;-77
2023/07/06 07:58:33;;;;;;;4.97;2.20;;;19.20;99.90;;;;;;5033559;28;20030;-77
2023/07/06 08:01:00;;;;;;;7.22;2.33;;;19.40;99.90;;;;;;5033628;28;20025;-77
2023/07/06 08:03:27;;;;;;;3.65;1.98;;;19.50;99.90;;;;;;5032060;28;20044;-77
2023/07/06 08:05:58;;;;;;;7.05;1.65;;;19.70;99.90;;;;;;5033365;28;20041;-77
2023/07/06 08:08:25;;;;;;;5.60;1.83;;;19.50;99.90;;;;;;5032052;28;20013;-77
2023/07/06 08:10:55;;;;;;;7.82;1.65;;;19.50;99.90;;;;;;5033422;28;20109;-76
2023/07/06 08:13:21;;;;;;;6.78;2.30;;;19.40;99.90;;;;;;5033194;28;20087;-77
2023/07/06 08:15:48;;;;;;;3.75;1.70;;;19.40;99.90;;;;;;5033431;28;20026;-77
2023/07/06 08:18:15;;;;;;;7.25;1.98;;;19.40;99.90;;;;;;5033298;28;20374;-77
2023/07/06 08:20:43;;;;;;;7.38;2.50;;;19.30;99.90;;;;;;5031916;28;20025;-77
2023/07/06 08:23:11;;;;;;;7.22;1.77;;;19.20;99.90;;;;;;5031843;28;20021;-77
2023/07/06 08:25:38;;;;;;;5.35;1.33;;;19.10;99.90;;;;;;5033245;28;20017;-77
2023/07/06 08:28:05;;;;;;;6.32;2.17;;;19.10;99.90;;;;;;5032135;28;20025;-77
2023/07/06 08:30:32;;;;;;;8.35;1.50;;;19.20;99.90;;;;;;5034329;28;20021;-78
2023/07/06 08:33:00;;;;;;;5.93;1.20;;;19.20;99.90;;;;;;5034159;28;20014;-78
2023/07/06 08:35:28;;;;;;;5.95;1.17;;;19.60;99.90;;;;;;5034124;28;20030;-77
2023/07/06 08:37:53;;;;;;;9.00;1.33;;;20.00;99.90;;;;;;5034714;28;20408;-77
2023/07/06 08:40:23;;;;;;;3.80;0.77;;;20.00;99.90;;;;;;5033192;28;20025;-77
2023/07/06 08:42:49;;;;;;;4.38;1.30;;;20.00;99.90;;;;;;5033537;28;20020;-77
2023/07/06 08:45:19;;;;;;;6.40;0.93;;;20.10;99.90;;;;;;5033650;28;20104;-77
2023/07/06 08:47:46;;;;;;;5.53;0.50;;;20.20;99.90;;;;;;5033693;28;20022;-77
2023/07/06 08:50:12;;;;;;;6.43;0.65;;;20.30;99.90;;;;;;5033466;28;20028;-77
2023/07/06 08:52:39;;;;;;;3.67;0.82;;;20.20;99.90;;;;;;5033636;28;20017;-77
2023/07/06 08:55:13;;;;;;;2.88;0.65;;;20.40;99.90;;;;;;5033534;28;20030;-77
2023/07/06 08:57:45;;;;;;;4.85;0.75;;;20.40;99.90;;;;;;5032809;28;20033;-78
2023/07/06 09:00:16;;;;;;;4.75;0.30;;;20.50;99.90;;;;;;5034140;28;20455;-78
2023/07/06 09:02:42;;;;;;;5.93;0.50;;;20.40;99.90;;;;;;5037705;28;20029;-77
2023/07/06 09:05:13;;;;;;;6.03;0.75;;;20.40;99.90;;;;;;5037229;28;20056;-75
2023/07/06 09:07:42;;;;;;;4.75;0.47;;;20.50;99.90;;;;;;5036797;28;20070;-75
2023/07/06 09:10:17;;;;;;;2.13;0.75;;;20.40;99.90;;;;;;5035394;28;20013;-75
2023/07/06 09:12:43;;;;;;;2.63;0.75;;;20.20;99.90;;;;;;5036454;28;20048;-75
2023/07/06 09:15:14;;;;;;;8.30;0.60;;;20.20;99.90;;;;;;5036726;28;20496;-75
2023/07/06 09:17:47;;;;;;;5.28;0.93;;;20.40;99.90;;;;;;5035236;28;20028;-75
2023/07/06 09:20:16;;;;;;;4.03;0.60;;;20.60;99.90;;;;;;5036566;28;20048;-75
2023/07/06 09:22:43;;;;;;;3.65;1.05;;;21.10;99.90;;;;;;5036324;28;20366;-76
2023/07/06 09:25:18;;;;;;;2.75;0.32;;;21.10;99.90;;;;;;5036336;28;20024;-76
2023/07/06 09:27:50;;;;;;;4.78;1.05;;;21.30;99.90;;;;;;5036884;28;20017;-75
2023/07/06 09:30:30;;;;;;;9.57;1.08;;;21.30;99.90;;;;;;5036329;28;20048;-75
2023/07/06 09:33:20;;;;;;;4.15;0.98;;;21.00;99.90;;;;;;5035033;28;20033;-75
2023/07/06 09:35:58;;;;;;;4.55;0.50;;;20.90;99.90;;;;;;5036828;28;20022;-76
2023/07/06 09:38:25;;;;;;;4.65;0.70;;;20.70;99.90;;;;;;5035081;28;20473;-75
2023/07/06 09:40:52;;;;;;;4.22;0.40;;;20.50;99.90;;;;;;5036106;28;20512;-76
2023/07/06 09:43:23;;;;;;;8.50;0.98;;;20.30;99.90;;;;;;5035964;28;20033;-76
2023/07/06 09:45:51;;;;;;;5.00;0.85;;;20.10;99.90;;;;;;5036484;28;20021;-75
2023/07/06 09:48:39;;;;;;;2.50;0.45;;;20.10;99.90;;;;;;5036548;28;20104;-76
2023/07/06 09:51:45;;;;;;;7.57;0.95;;;19.90;99.90;;;;;;5035978;28;20026;-75
2023/07/06 09:54:17;;;;;;;1.77;0.60;;;19.70;99.90;;;;;;5005969;28;20034;-74
2023/07/06 09:56:43;;;;;;;7.10;1.05;;;19.60;99.90;;;;;;5035856;28;20033;-74
2023/07/06 09:59:11;;;;;;;2.70;0.80;;;19.50;99.90;;;;;;5036349;28;20025;-75
2023/07/06 10:01:53;;;;;;;7.85;1.00;;;19.50;99.90;;;;;;5035743;28;20481;-76
2023/07/06 10:04:46;;;;;;;5.22;0.80;;;19.30;99.90;;;;;;5034343;28;20025;-76
2023/07/06 10:07:48;;;;;;;5.32;1.63;;;19.10;99.90;;;;;;5036160;28;20032;-76
2023/07/06 10:10:16;;;;;;;4.82;1.13;;;19.10;99.90;;;;;;5034199;28;20018;-75
2023/07/06 10:12:45;;;;;;;3.55;1.27;;;19.10;99.90;;;;;;5034542;28;20026;-76
2023/07/06 10:15:33;;;;;;;5.05;0.80;;;19.00;99.90;;;;;;5036368;28;20048;-76
2023/07/06 10:18:42;;;;;;;5.45;0.90;;;18.90;99.90;;;;;;5022138;28;20112;-76
2023/07/06 10:21:30;;;;;;;4.63;1.23;;;18.90;99.90;;;;;;5032160;28;20037;-76
2023/07/06 10:24:03;;;;;;;5.35;0.80;;;18.80;99.90;;;;;;5035302;28;20025;-76
2023/07/06 10:26:34;;;;;;;4.63;1.20;;;18.80;99.90;;;;;;5035203;28;20501;-76
2023/07/06 10:29:05;;;;;;;4.68;0.73;;;19.00;99.90;;;;;;5033918;28;20053;-76
2023/07/06 10:32:00;;;;;;;3.40;0.77;;;18.50;99.90;;;;;;5033893;28;20476;-76
2023/07/06 10:34:25;;;;;;;4.10;1.10;;;18.40;99.90;;;;;;5029459;28;20045;-76
2023/07/06 10:36:51;;;;;;;4.93;1.13;;;18.40;99.90;;;;;;5033691;28;20026;-76
2023/07/06 10:39:23;;;;;;;3.55;0.70;;;18.40;99.90;;;;;;5033638;28;20022;-76
2023/07/06 10:42:00;;;;;;;7.22;1.08;;;18.60;99.90;;;;;;5034884;28;20037;-76
2023/07/06 10:44:44;;;;;;;4.38;1.05;;;18.60;99.90;;;;;;5034821;28;20083;-76
2023/07/06 10:47:29;;;;;;;5.20;1.27;;;18.80;99.90;;;;;;5034783;28;20485;-76
2023/07/06 10:50:22;;;;;;;2.63;0.40;;;19.00;99.90;;;;;;5036519;28;20022;-78
2023/07/06 10:52:59;;;;;;;5.68;0.30;;;19.10;99.90;;;;;;5033134;28;20072;-79
2023/07/06 10:55:29;;;;;;;4.32;0.43;;;19.50;99.90;;;;;;5035430;28;20013;-78
2023/07/06 10:58:21;;;;;;;4.75;0.22;;;19.60;99.90;;;;;;5037371;28;20186;-78
2023/07/06 11:00:47;;;;;;;0.65;0.00;;;19.80;99.90;;;;;;5037473;28;20026;-78
2023/07/06 11:03:22;;;;;;;4.05;0.70;;;20.00;99.90;;;;;;5035513;28;20025;-78
2023/07/06 11:06:06;;;;;;;5.93;0.25;;;20.20;99.90;;;;;;5036983;28;20020;-79
2023/07/06 11:09:09;;;;;;;5.43;0.43;;;20.30;99.90;;;;;;5036558;28;20021;-76
2023/07/06 11:11:43;;;;;;;4.47;0.35;;;20.60;99.90;;;;;;5034324;28;20029;-76
2023/07/06 11:14:31;;;;;;;2.13;0.20;;;21.00;99.90;;;;;;5034194;28;20513;-76
2023/07/06 11:17:18;;;;;;;1.05;0.20;;;21.30;99.90;;;;;;5033205;28;20029;-78
2023/07/06 11:20:13;;;;;;;2.72;0.20;;;21.40;99.90;;;;;;5034259;28;20097;-78
2023/07/06 11:22:40;;;;;;;2.63;0.10;;;21.80;99.90;;;;;;5033201;28;20060;-76
2023/07/06 11:25:11;;;;;;;4.50;0.17;;;21.80;99.90;;;;;;5032767;28;20037;-76
2023/07/06 11:27:43;;;;;;;1.63;0.00;;;21.90;99.90;;;;;;5034114;28;20455;-77
2023/07/06 11:30:31;;;;;;;2.03;0.28;;;21.90;99.90;;;;;;5034007;28;20013;-76
2023/07/06 11:33:13;;;;;;;4.20;0.00;;;21.70;99.90;;;;;;5034472;28;20053;-77
2023/07/06 11:35:54;;;;;;;1.48;0.00;;;21.60;99.90;;;;;;5033955;28;20018;-76
2023/07/06 11:38:46;;;;;;;0.60;0.05;;;21.30;99.90;;;;;;5032900;28;20112;-76
2023/07/06 11:41:21;;;;;;;2.47;0.10;;;21.40;99.90;;;;;;4992691;28;20059;-77
2023/07/06 11:44:31;;;;;;;1.70;0.15;;;21.50;99.90;;;;;;5032436;28;20025;-77
2023/07/06 11:47:17;;;;;;;2.28;0.35;;;21.60;99.90;;;;;;5026659;28;20033;-76
2023/07/06 11:49:50;;;;;;;0.85;0.00;;;21.60;99.90;;;;;;5032402;28;20026;-77
2023/07/06 11:52:32;;;;;;;1.58;0.10;;;21.50;99.90;;;;;;5035374;28;20029;-77
2023/07/06 11:55:14;;;;;;;0.52;0.05;;;21.50;99.90;;;;;;5034629;28;20029;-77
2023/07/06 11:57:56;;;;;;;2.30;0.38;;;21.70;99.90;;;;;;5032718;28;20024;-77
2023/07/06 12:03:04;;;;;;;0.68;0.13;;;21.70;99.90;;;;;;5036536;28;20053;-79
2023/07/06 12:05:38;;;;;;;1.35;0.00;;;21.30;99.90;;;;;;5036328;28;20029;-77
2023/07/06 12:08:30;;;;;;;3.30;0.00;;;21.40;99.90;;;;;;5033514;28;20049;-76
2023/07/06 12:11:01;;;;;;;1.85;0.00;;;21.80;99.90;;;;;;5033485;28;20025;-76
2023/07/06 12:13:36;;;;;;;0.13;0.00;;;22.30;99.90;;;;;;5033183;28;20033;-76
2023/07/06 12:16:11;;;;;;;1.75;0.13;;;22.40;99.40;;;;;;5034146;28;20037;-78
2023/07/06 12:18:38;;;;;;;1.83;0.13;;;22.40;99.90;;;;;;5034006;28;20167;-76
2023/07/06 12:21:05;;;;;;;0.30;0.00;;;22.70;99.90;;;;;;5033220;28;20496;-76
2023/07/06 12:23:31;;;;;;;0.08;0.00;;;22.60;98.60;;;;;;5031804;28;20022;-76
2023/07/06 12:25:57;;;;;;;0.93;0.00;;;22.50;97.10;;;;;;5033241;28;20053;-76
2023/07/06 12:28:30;;;;;;;2.20;0.20;;;22.70;96.10;;;;;;5033299;28;20370;-75
2023/07/06 12:31:00;;;;;;;4.07;0.20;;;22.70;94.80;;;;;;5031997;28;20037;-76
2023/07/06 12:33:28;;;;;;;1.40;0.25;;;22.80;97.20;;;;;;5033130;28;20025;-74
2023/07/06 12:35:54;;;;;;;1.15;0.00;;;23.10;96.80;;;;;;5034033;28;20021;-75
2023/07/06 12:38:20;;;;;;;1.17;0.00;;;23.40;94.90;;;;;;5035990;28;20033;-75
2023/07/06 12:40:46;;;;;;;2.20;0.00;;;23.40;94.10;;;;;;5037772;28;20431;-75
2023/07/06 12:43:25;;;;;;;1.23;0.00;;;23.40;95.50;;;;;;5037055;28;20378;-75
2023/07/06 12:45:53;;;;;;;1.10;0.00;;;23.90;96.40;;;;;;5037675;28;20425;-75
2023/07/06 12:48:24;;;;;;;2.03;0.32;;;24.50;95.20;;;;;;5037129;28;20068;-75
2023/07/06 12:50:54;;;;;;;0.90;0.00;;;24.50;92.00;;;;;;5037063;28;20109;-75
2023/07/06 12:53:33;;;;;;;1.75;0.00;;;24.40;90.40;;;;;;5037485;28;20028;-75
2023/07/06 12:56:21;;;;;;;2.10;0.20;;;24.30;91.70;;;;;;5036901;28;20388;-75
2023/07/06 12:58:55;;;;;;;0.80;0.00;;;24.10;89.50;;;;;;5035730;28;20029;-75
2023/07/06 13:01:29;;;;;;;3.08;0.00;;;24.20;91.10;;;;;;5036834;28;20029;-75
2023/07/06 13:04:03;;;;;;;1.05;0.00;;;24.30;92.40;;;;;;5036808;28;20163;-75
2023/07/06 13:06:29;;;;;;;2.67;0.00;;;24.30;89.80;;;;;;5036835;28;20120;-75